Time;durP1;ratioP1;P1;durP2;ratioP2;P2;SDS_P1;SDS_P2;PMS_P1;PMS_P2;Temp;Humidity;BMP_temperature;BMP_pressure;BME280_temperature;BME280_humidity;BME280_pressure;Samples;Min_cycle;Max_cycle;Signal;HPM_P1;HPM_P2
2022/02/01 00:00:24;;;;;;;28.27;4.05;;;;;;;2.30;84.88;99609.50;5013014;28;20076;-58
2022/02/01 00:02:19;;;;;;;14.05;2.58;;;;;;;2.30;84.40;99619.25;5008042;28;20180;-58
2022/02/01 00:09:56;;;;;;;38.47;5.07;;;;;;;2.26;83.30;99631.19;5012750;28;20029;-59
2022/02/01 00:36:51;;;;;;;28.88;4.90;;;;;;;1.87;83.11;99635.63;5012654;28;20085;-58
2022/02/01 00:39:17;;;;;;;33.08;4.47;;;;;;;1.85;82.07;99640.28;5013090;28;20108;-58
2022/02/01 00:41:48;;;;;;;33.70;3.63;;;;;;;1.77;82.94;99650.06;5012225;28;20033;-59
2022/02/01 00:44:14;;;;;;;33.65;3.78;;;;;;;1.67;83.06;99650.28;5011037;28;20508;-58
2022/02/01 00:46:40;;;;;;;25.40;4.13;;;;;;;1.70;83.02;99658.69;5012357;28;20038;-58
2022/02/01 00:49:08;;;;;;;33.05;5.15;;;;;;;1.62;83.94;99660.56;5010739;28;20117;-58
2022/02/01 00:51:34;;;;;;;16.63;3.50;;;;;;;1.55;83.67;99657.81;5011307;28;20030;-58
2022/02/01 00:53:59;;;;;;;42.50;5.00;;;;;;;1.47;84.58;99640.19;4994903;28;20025;-59
2022/02/01 00:56:25;;;;;;;26.17;5.15;;;;;;;1.49;84.03;99659.28;5012303;28;20041;-58
2022/02/01 00:58:51;;;;;;;36.85;6.85;;;;;;;1.44;84.65;99677.47;5012009;28;20030;-59
2022/02/01 01:01:16;;;;;;;36.72;5.93;;;;;;;1.45;84.61;99679.16;5011908;28;20038;-59
2022/02/01 01:03:44;;;;;;;25.98;4.97;;;;;;;1.38;85.31;99701.97;5011980;28;20064;-58
2022/02/01 01:06:10;;;;;;;28.35;4.63;;;;;;;1.51;84.79;99704.88;5012315;28;20030;-58
2022/02/01 01:08:35;;;;;;;25.23;3.78;;;;;;;1.48;84.57;99705.22;5012486;28;20503;-59
2022/02/01 01:11:02;;;;;;;26.92;4.10;;;;;;;1.46;85.30;99701.91;5010468;28;20084;-58
2022/02/01 01:43:42;;;;;;;29.20;3.42;;;;;;;1.10;84.53;99733.25;4993489;28;20043;-59
2022/02/01 01:52:49;;;;;;;27.20;4.55;;;;;;;1.13;84.78;99745.28;4993676;28;20041;-59
2022/02/01 01:54:23;;;;;;;27.77;4.30;;;;;;;1.28;84.26;99762.91;5015658;28;20160;-59
2022/02/01 01:56:49;;;;;;;21.02;5.10;;;;;;;1.46;82.75;99753.94;5013949;28;20022;-58
2022/02/01 01:59:15;;;;;;;26.48;3.97;;;;;;;1.40;83.02;99750.16;5014343;28;20340;-58
2022/02/01 02:01:40;;;;;;;22.08;3.58;;;;;;;1.37;83.52;99781.34;5015227;28;20033;-59
2022/02/01 02:04:06;;;;;;;17.60;3.70;;;;;;;1.41;84.44;99775.56;5013681;28;20026;-59
2022/02/01 02:06:32;;;;;;;22.27;3.60;;;;;;;1.39;83.82;99768.81;5013901;28;20110;-59
2022/02/01 02:08:59;;;;;;;35.25;4.25;;;;;;;1.34;84.64;99774.59;5014028;28;20037;-58
2022/02/01 02:14:28;;;;;;;28.17;3.83;;;;;;;1.53;84.79;99748.81;4973762;28;20031;-59
2022/02/01 02:16:58;;;;;;;26.75;4.05;;;;;;;1.48;85.02;99742.19;5003037;28;20038;-59
2022/02/01 02:19:25;;;;;;;27.30;3.63;;;;;;;1.50;84.93;99745.50;5015837;28;20388;-59
2022/02/01 02:21:55;;;;;;;20.35;2.90;;;;;;;1.61;84.99;99735.53;5014703;28;20113;-58
2022/02/01 02:24:21;;;;;;;19.05;2.95;;;;;;;1.62;84.96;99743.31;5014869;28;20041;-59
2022/02/01 02:26:48;;;;;;;23.73;3.33;;;;;;;1.57;85.32;99742.16;5014620;28;20188;-58
2022/02/01 02:29:14;;;;;;;25.30;3.85;;;;;;;1.56;85.37;99738.69;5014779;28;20026;-59
2022/02/01 02:31:40;;;;;;;20.80;3.22;;;;;;;1.67;84.32;99737.47;5014361;28;20018;-59
2022/02/01 02:34:09;;;;;;;24.48;3.75;;;;;;;1.71;84.69;99749.38;5014601;28;20084;-59
2022/02/01 02:36:38;;;;;;;15.57;4.32;;;;;;;1.64;84.80;99743.94;5014299;28;20033;-59
2022/02/01 02:39:12;;;;;;;24.10;3.60;;;;;;;1.57;85.11;99739.50;5015609;28;20046;-59
2022/02/01 02:41:49;;;;;;;30.90;3.90;;;;;;;1.60;84.68;99734.72;5014671;28;20029;-59
2022/02/01 02:46:59;;;;;;;24.55;2.95;;;;;;;1.58;84.29;99746.47;5014287;28;20061;-59
2022/02/01 02:49:25;;;;;;;22.95;3.63;;;;;;;1.61;84.90;99767.25;5014501;28;20058;-59
2022/02/01 02:51:51;;;;;;;20.27;2.60;;;;;;;1.58;84.90;99759.69;5014215;28;20456;-59
2022/02/01 02:54:18;;;;;;;18.67;3.78;;;;;;;1.55;85.30;99737.06;5012780;28;20030;-58
2022/02/01 02:56:48;;;;;;;22.08;2.80;;;;;;;1.49;84.85;99743.84;5014037;28;20037;-59
2022/02/01 02:59:15;;;;;;;21.95;3.28;;;;;;;1.55;85.31;99757.34;5013073;28;20064;-59
2022/02/01 03:01:41;;;;;;;19.67;2.80;;;;;;;1.56;85.11;99761.66;5014222;28;20025;-59
2022/02/01 03:04:07;;;;;;;20.33;3.50;;;;;;;1.58;84.24;99772.88;5014155;28;20037;-59
2022/02/01 03:06:32;;;;;;;18.02;3.00;;;;;;;1.58;84.60;99788.75;5013830;28;20025;-59
2022/02/01 03:08:57;;;;;;;24.63;3.05;;;;;;;1.60;84.26;99781.44;5012507;28;20034;-60
2022/02/01 03:11:23;;;;;;;13.95;3.00;;;;;;;1.65;85.40;99779.13;5013653;28;20034;-59
2022/02/01 03:13:54;;;;;;;26.00;3.78;;;;;;;1.61;84.43;99776.00;5013795;28;20068;-59
2022/02/01 03:21:32;;;;;;;19.40;3.13;;;;;;;1.56;85.11;99770.41;5013604;28;20092;-58
2022/02/01 03:23:57;;;;;;;19.33;2.78;;;;;;;1.63;85.08;99781.13;5014135;28;20388;-59
2022/02/01 03:26:22;;;;;;;21.52;3.63;;;;;;;1.67;85.34;99782.41;5013468;28;20043;-59
2022/02/01 03:28:48;;;;;;;20.75;3.10;;;;;;;1.62;84.69;99774.16;5013456;28;20038;-59
2022/02/01 03:31:13;;;;;;;12.02;2.42;;;;;;;1.67;84.26;99777.13;5013368;28;20025;-59
2022/02/01 03:33:39;;;;;;;18.42;3.35;;;;;;;1.72;85.16;99780.06;5013612;28;20029;-59
2022/02/01 03:36:04;;;;;;;18.90;3.15;;;;;;;1.72;84.37;99780.06;5013684;28;20100;-59
2022/02/01 03:38:29;;;;;;;18.10;2.83;;;;;;;1.67;84.82;99792.97;5013541;28;20475;-59
2022/02/01 03:40:55;;;;;;;26.70;3.47;;;;;;;1.72;85.30;99785.34;5013292;28;20037;-59
2022/02/01 03:43:20;;;;;;;16.98;3.30;;;;;;;1.64;84.80;99786.22;5013057;28;20042;-58
2022/02/01 03:45:46;;;;;;;17.23;3.58;;;;;;;1.68;84.59;99778.78;5013247;28;20042;-58
2022/02/01 03:48:11;;;;;;;15.05;3.45;;;;;;;1.68;84.91;99774.31;5013145;28;20089;-58
2022/02/01 03:50:37;;;;;;;19.30;3.88;;;;;;;1.75;84.33;99790.31;5012978;28;20042;-58
2022/02/01 03:53:02;;;;;;;31.48;3.83;;;;;;;1.71;84.54;99787.19;5012984;28;20034;-58
2022/02/01 03:55:28;;;;;;;25.60;3.90;;;;;;;1.76;84.38;99793.78;5012090;28;20030;-58
2022/02/01 03:57:53;;;;;;;15.35;2.75;;;;;;;1.71;83.89;99778.44;5013071;28;20025;-58
2022/02/01 04:00:19;;;;;;;11.30;3.13;;;;;;;1.74;84.25;99780.72;5011670;28;20022;-58
2022/02/01 04:02:44;;;;;;;29.15;3.42;;;;;;;1.65;84.23;99772.03;5013690;28;20026;-58
2022/02/01 04:05:09;;;;;;;24.15;3.80;;;;;;;1.66;83.77;99764.91;5013135;28;20400;-58
2022/02/01 04:07:35;;;;;;;23.98;3.00;;;;;;;1.74;82.66;99759.59;5012834;28;20034;-59
2022/02/01 04:10:00;;;;;;;13.23;3.20;;;;;;;1.70;83.21;99767.06;5013077;28;20100;-58
2022/02/01 04:12:27;;;;;;;15.43;2.90;;;;;;;1.66;83.37;99767.56;5012843;28;20026;-58
2022/02/01 04:14:54;;;;;;;20.98;3.28;;;;;;;1.63;83.70;99767.91;5012726;28;20033;-58
2022/02/01 04:17:20;;;;;;;11.52;3.47;;;;;;;1.61;83.75;99765.44;5012931;28;20030;-58
2022/02/01 04:19:47;;;;;;;21.02;3.42;;;;;;;1.59;83.85;99764.78;5012841;28;20498;-58
2022/02/01 04:22:14;;;;;;;20.05;4.25;;;;;;;1.62;83.22;99774.16;5012573;28;20437;-58
2022/02/01 04:24:41;;;;;;;22.77;4.72;;;;;;;1.63;83.37;99765.28;5013096;28;20026;-58
2022/02/01 04:27:07;;;;;;;22.05;3.40;;;;;;;1.57;83.78;99763.28;5012753;28;20077;-58
2022/02/01 04:29:33;;;;;;;16.50;3.40;;;;;;;1.63;84.26;99770.56;5012788;28;20034;-58
2022/02/01 04:31:58;;;;;;;18.52;3.20;;;;;;;1.62;83.85;99763.59;5012334;28;20029;-59
2022/02/01 04:34:24;;;;;;;23.25;4.05;;;;;;;1.58;82.97;99751.75;5012276;28;20033;-58
2022/02/01 04:36:49;;;;;;;19.23;2.80;;;;;;;1.64;83.42;99756.34;5012593;28;20029;-58
2022/02/01 04:39:15;;;;;;;14.48;2.60;;;;;;;1.61;82.93;99772.53;5012228;28;20022;-58
2022/02/01 04:41:40;;;;;;;16.30;2.67;;;;;;;1.54;83.35;99772.38;5011977;28;20030;-58
2022/02/01 04:44:06;;;;;;;23.52;3.28;;;;;;;1.57;84.05;99776.50;5012216;28;20042;-58
2022/02/01 04:46:32;;;;;;;19.35;2.67;;;;;;;1.53;83.54;99769.94;5012219;28;20025;-58
2022/02/01 04:49:05;;;;;;;25.27;3.33;;;;;;;1.52;84.03;99755.88;5012151;28;20038;-58
2022/02/01 04:51:31;;;;;;;14.98;3.13;;;;;;;1.57;83.60;99744.81;5012096;28;20484;-63
2022/02/01 04:53:57;;;;;;;20.25;3.05;;;;;;;1.51;83.38;99749.78;5012410;28;20186;-59
2022/02/01 04:56:22;;;;;;;16.67;2.75;;;;;;;1.49;83.97;99746.47;5012049;28;20041;-59
2022/02/01 04:58:48;;;;;;;20.27;2.92;;;;;;;1.50;83.93;99742.03;5012130;28;20054;-58
2022/02/01 05:01:13;;;;;;;22.58;3.15;;;;;;;1.45;83.86;99736.44;5009561;28;20033;-59
2022/02/01 05:03:42;;;;;;;21.13;3.47;;;;;;;1.46;84.52;99733.63;5012336;28;20092;-59
2022/02/01 05:06:08;;;;;;;21.52;2.80;;;;;;;1.37;84.87;99732.00;5011868;28;20038;-58
2022/02/01 05:08:33;;;;;;;17.73;2.40;;;;;;;1.40;84.43;99738.75;5012037;28;20061;-59
2022/02/01 05:10:59;;;;;;;17.17;3.05;;;;;;;1.45;84.19;99739.91;5012110;28;20498;-58
2022/02/01 05:16:06;;;;;;;18.40;2.97;;;;;;;1.57;83.93;99721.03;5012427;28;20121;-59
2022/02/01 05:18:46;;;;;;;17.45;3.10;;;;;;;1.53;84.69;99719.75;5011153;28;20336;-59
2022/02/01 05:21:19;;;;;;;22.15;3.13;;;;;;;1.53;84.43;99722.38;5012423;28;20045;-59
2022/02/01 05:23:45;;;;;;;18.75;3.20;;;;;;;1.51;85.22;99733.09;5012272;28;20088;-59
2022/02/01 05:26:11;;;;;;;20.35;3.05;;;;;;;1.51;85.63;99731.28;5012648;28;20026;-59
2022/02/01 05:28:37;;;;;;;14.60;3.45;;;;;;;1.50;85.54;99734.94;5010349;28;20034;-59
2022/02/01 05:31:04;;;;;;;16.08;3.00;;;;;;;1.57;84.86;99729.75;5012440;28;20097;-59
2022/02/01 05:33:30;;;;;;;17.73;2.78;;;;;;;1.57;85.02;99742.97;5012525;28;20026;-61
2022/02/01 05:35:56;;;;;;;17.52;3.17;;;;;;;1.62;85.20;99750.41;5011122;28;20029;-60
2022/02/01 05:38:21;;;;;;;17.02;3.30;;;;;;;1.56;85.30;99749.25;5010851;28;20109;-60
2022/02/01 05:40:47;;;;;;;15.30;3.08;;;;;;;1.56;85.63;99748.44;5011767;28;20358;-59
2022/02/01 05:43:18;;;;;;;16.02;3.00;;;;;;;1.53;85.81;99754.09;5011199;28;20041;-59
2022/02/01 05:45:43;;;;;;;21.88;3.40;;;;;;;1.55;86.57;99749.44;5011878;28;20095;-60
2022/02/01 05:48:12;;;;;;;20.15;3.60;;;;;;;1.60;86.61;99766.44;5010003;28;20444;-60
2022/02/01 05:50:38;;;;;;;15.80;3.20;;;;;;;1.52;87.24;99758.50;5011464;28;20544;-60
2022/02/01 05:53:05;;;;;;;15.00;3.28;;;;;;;1.53;87.42;99773.41;5011727;28;20056;-59
2022/02/01 05:55:32;;;;;;;12.88;2.58;;;;;;;1.59;87.28;99779.81;5011554;28;20026;-59
2022/02/01 05:57:59;;;;;;;14.32;2.80;;;;;;;1.58;87.63;99779.00;5010593;28;20022;-59
2022/02/01 06:00:25;;;;;;;13.50;2.90;;;;;;;1.53;87.72;99785.78;5012414;28;20037;-59
2022/02/01 06:02:50;;;;;;;18.52;3.47;;;;;;;1.60;87.68;99802.56;5011788;28;20384;-59
2022/02/01 06:05:16;;;;;;;23.10;3.17;;;;;;;1.55;88.41;99795.19;5010345;28;20030;-59
2022/02/01 06:07:42;;;;;;;23.00;3.47;;;;;;;1.54;88.67;99782.13;5011986;28;20026;-59
2022/02/01 06:10:08;;;;;;;12.00;3.28;;;;;;;1.51;88.99;99789.41;5009825;28;20041;-59
2022/02/01 06:12:40;;;;;;;15.63;3.53;;;;;;;1.47;89.65;99780.19;5012573;28;20034;-59
2022/02/01 06:15:06;;;;;;;16.77;3.33;;;;;;;1.58;89.22;99767.59;5014036;28;20026;-59
2022/02/01 06:17:31;;;;;;;17.30;3.47;;;;;;;1.47;89.38;99766.13;5014881;28;20364;-59
2022/02/01 06:19:57;;;;;;;9.98;3.10;;;;;;;1.40;89.64;99758.09;5014124;28;20025;-59
2022/02/01 06:22:22;;;;;;;14.45;3.03;;;;;;;1.38;90.39;99752.16;5015220;28;20088;-59
2022/02/01 06:24:48;;;;;;;15.02;2.85;;;;;;;1.37;90.41;99755.75;5014741;28;20378;-59
2022/02/01 06:27:13;;;;;;;15.85;3.25;;;;;;;1.35;90.73;99752.50;5015064;28;20033;-59
2022/02/01 06:29:38;;;;;;;9.77;3.35;;;;;;;1.38;90.39;99746.03;5014629;28;20176;-59
2022/02/01 06:32:04;;;;;;;10.77;3.63;;;;;;;1.40;90.52;99734.31;5015308;28;20038;-60
2022/02/01 06:34:30;;;;;;;9.20;3.10;;;;;;;1.35;90.73;99725.22;5014549;28;20559;-59
2022/02/01 06:36:55;;;;;;;14.27;3.25;;;;;;;1.46;90.75;99712.47;4998142;28;20022;-59
2022/02/01 06:39:21;;;;;;;14.77;3.35;;;;;;;1.37;90.72;99707.41;5014425;28;20034;-59
2022/02/01 06:41:47;;;;;;;10.77;3.40;;;;;;;1.39;89.74;99703.59;5014258;28;20054;-59
2022/02/01 06:44:12;;;;;;;17.40;4.30;;;;;;;1.41;90.06;99706.88;5013021;28;20107;-59
2022/02/01 06:46:38;;;;;;;10.68;3.47;;;;;;;1.42;89.79;99702.44;5013406;28;20042;-59
2022/02/01 06:49:09;;;;;;;16.90;3.55;;;;;;;1.37;89.53;99704.75;5014746;28;20044;-59
2022/02/01 06:51:34;;;;;;;16.67;4.32;;;;;;;1.24;89.77;99697.38;5014580;28;20092;-59
2022/02/01 06:54:01;;;;;;;16.10;3.80;;;;;;;1.18;90.15;99708.63;5014779;28;20485;-59
2022/02/01 06:56:29;;;;;;;21.67;4.22;;;;;;;0.95;92.38;99725.19;5014477;28;20180;-59
2022/02/01 06:58:56;;;;;;;26.60;4.22;;;;;;;0.82;92.72;99723.06;5012906;28;20079;-59
2022/02/01 07:01:22;;;;;;;17.67;3.85;;;;;;;0.67;93.10;99715.97;5012776;28;20080;-59
2022/02/01 07:03:47;;;;;;;13.50;3.88;;;;;;;0.57;94.08;99716.97;5013745;28;20025;-59
2022/02/01 07:06:13;;;;;;;14.77;5.07;;;;;;;0.51;95.09;99725.56;5014417;28;20464;-59
2022/02/01 07:08:43;;;;;;;10.60;3.90;;;;;;;0.68;94.89;99715.00;5013773;28;20506;-59
2022/02/01 07:11:09;;;;;;;16.58;5.22;;;;;;;0.87;93.46;99725.19;5014151;28;20029;-59
2022/02/01 07:13:35;;;;;;;25.63;5.00;;;;;;;0.99;92.27;99729.13;5013970;28;20021;-59
2022/02/01 07:16:00;;;;;;;13.63;4.40;;;;;;;0.94;92.21;99720.88;5012471;28;20034;-59
2022/02/01 07:18:26;;;;;;;9.48;3.97;;;;;;;0.95;92.89;99698.81;5013762;28;20104;-59
2022/02/01 07:20:51;;;;;;;17.92;4.13;;;;;;;0.81;93.89;99686.28;4995919;28;20388;-59
2022/02/01 07:23:22;;;;;;;14.30;4.28;;;;;;;0.81;93.81;99687.09;5013061;28;20038;-59
2022/02/01 07:25:48;;;;;;;17.75;4.97;;;;;;;0.90;94.14;99695.84;5013470;28;20041;-58
2022/02/01 07:28:13;;;;;;;14.85;4.00;;;;;;;1.04;93.44;99692.47;5014162;28;20040;-59
2022/02/01 07:30:39;;;;;;;13.68;3.90;;;;;;;1.03;92.68;99685.56;5011989;28;20064;-59
2022/02/01 07:33:04;;;;;;;12.68;3.72;;;;;;;1.14;92.82;99691.47;5013310;28;20129;-59
2022/02/01 07:35:32;;;;;;;15.93;4.40;;;;;;;1.19;91.94;99695.25;5012093;28;20050;-59
2022/02/01 07:37:59;;;;;;;17.67;5.35;;;;;;;1.14;91.84;99676.44;5012059;28;20069;-59
2022/02/01 07:40:24;;;;;;;14.00;3.92;;;;;;;1.15;92.45;99677.28;5013622;28;20026;-59
2022/02/01 07:42:50;;;;;;;17.38;5.10;;;;;;;1.15;93.02;99677.28;5013426;28;20054;-59
2022/02/01 07:45:17;;;;;;;21.45;4.88;;;;;;;1.10;92.98;99676.97;5013710;28;20171;-60
2022/02/01 07:47:43;;;;;;;16.17;5.63;;;;;;;1.15;93.22;99687.84;5013413;28;20080;-60
2022/02/01 07:50:08;;;;;;;14.80;4.45;;;;;;;1.18;93.02;99679.59;5013488;28;20460;-59
2022/02/01 07:52:34;;;;;;;19.40;5.30;;;;;;;1.17;93.67;99676.09;5013426;28;20081;-60
2022/02/01 07:55:00;;;;;;;21.15;6.55;;;;;;;1.19;93.19;99673.31;4995384;28;20494;-60
2022/02/01 07:57:25;;;;;;;21.25;5.72;;;;;;;1.32;92.33;99667.47;4995714;28;20036;-60
2022/02/01 07:59:51;;;;;;;13.63;4.88;;;;;;;1.35;92.18;99662.69;5012038;28;20483;-60
2022/02/01 08:02:20;;;;;;;20.05;6.00;;;;;;;1.39;92.12;99665.78;5011967;28;20049;-60
2022/02/01 08:04:47;;;;;;;15.15;5.95;;;;;;;1.42;91.71;99658.38;5011567;28;20041;-60
2022/02/01 08:07:13;;;;;;;15.77;5.55;;;;;;;1.48;91.42;99662.13;5013068;28;20030;-60
2022/02/01 08:09:42;;;;;;;19.38;5.43;;;;;;;1.55;90.54;99662.25;5013065;28;20500;-60
2022/02/01 08:20:07;;;;;;;15.90;4.78;;;;;;;1.60;88.57;99671.31;5012621;28;20427;-59
2022/02/01 08:25:01;;;;;;;12.18;5.70;;;;;;;1.64;87.41;99667.31;5012444;28;20167;-59
2022/02/01 08:27:26;;;;;;;14.82;5.65;;;;;;;1.76;87.59;99659.81;5011079;28;20071;-59
2022/02/01 08:29:52;;;;;;;15.60;5.13;;;;;;;1.75;87.30;99652.06;5012422;28;20048;-59
2022/02/01 08:32:17;;;;;;;17.70;6.32;;;;;;;1.85;86.85;99650.84;4994562;28;20030;-59
2022/02/01 08:34:42;;;;;;;8.70;4.70;;;;;;;1.79;86.26;99651.53;5012525;28;20034;-60
2022/02/01 08:37:08;;;;;;;29.85;11.45;;;;;;;1.81;86.93;99641.59;5012563;28;20040;-59
2022/02/01 08:39:33;;;;;;;37.00;13.77;;;;;;;1.81;86.91;99636.31;5012250;28;20116;-59
2022/02/01 08:41:59;;;;;;;14.32;6.00;;;;;;;1.85;85.60;99642.09;5011622;28;20049;-59
2022/02/01 08:44:28;;;;;;;21.10;11.18;;;;;;;1.97;84.41;99647.78;5012473;28;20025;-59
2022/02/01 08:46:54;;;;;;;52.05;22.48;;;;;;;2.04;84.13;99651.38;5011097;28;20045;-59
2022/02/01 08:49:20;;;;;;;17.63;7.60;;;;;;;2.05;83.93;99631.88;5010871;28;20116;-59
2022/02/01 08:51:48;;;;;;;20.58;8.65;;;;;;;2.03;84.02;99631.22;5012429;28;20026;-59
2022/02/01 08:54:20;;;;;;;29.10;8.80;;;;;;;2.13;83.91;99626.50;5012377;28;20022;-59
2022/02/01 08:59:29;;;;;;;20.58;6.30;;;;;;;2.17;83.29;99603.97;5012102;28;20360;-59
2022/02/01 09:01:55;;;;;;;18.80;8.85;;;;;;;2.14;83.61;99609.63;5010976;28;20065;-59
2022/02/01 09:04:20;;;;;;;18.65;7.75;;;;;;;2.19;83.84;99601.97;5012392;28;20065;-59
2022/02/01 09:06:45;;;;;;;16.52;5.38;;;;;;;2.28;83.75;99610.69;5012363;28;20026;-59
2022/02/01 09:09:11;;;;;;;19.52;5.97;;;;;;;2.28;84.44;99592.97;5012339;28;20041;-59
2022/02/01 09:11:36;;;;;;;25.45;7.05;;;;;;;2.26;84.08;99597.63;5012068;28;20037;-59
2022/02/01 09:14:02;;;;;;;15.82;5.82;;;;;;;2.20;84.40;99592.22;5012141;28;20030;-59
2022/02/01 09:16:27;;;;;;;20.15;6.60;;;;;;;2.15;85.30;99604.19;5012143;28;20037;-59
2022/02/01 09:18:54;;;;;;;16.85;5.68;;;;;;;2.11;86.00;99607.34;5012230;28;20033;-59
2022/02/01 09:21:19;;;;;;;19.40;7.10;;;;;;;2.18;86.26;99597.72;5011896;28;20049;-59
2022/02/01 09:23:45;;;;;;;15.38;5.05;;;;;;;2.08;86.39;99590.03;5012255;28;20022;-59
2022/02/01 09:26:10;;;;;;;26.40;4.57;;;;;;;2.21;85.95;99581.47;5011807;28;20029;-59
2022/02/01 09:28:36;;;;;;;26.80;6.97;;;;;;;2.31;86.01;99582.03;5012076;28;20033;-59
2022/02/01 09:31:01;;;;;;;11.45;4.95;;;;;;;2.29;85.90;99580.56;5012029;28;20049;-59
2022/02/01 09:33:28;;;;;;;21.70;6.13;;;;;;;2.31;86.87;99581.22;5010530;28;20030;-59
2022/02/01 09:35:53;;;;;;;20.50;6.47;;;;;;;2.34;85.79;99581.66;5010799;28;20033;-59
2022/02/01 09:38:19;;;;;;;20.05;6.10;;;;;;;2.23;86.45;99560.97;5011682;28;20448;-59
2022/02/01 09:40:44;;;;;;;14.10;5.55;;;;;;;2.37;86.39;99565.47;5011950;28;20046;-59
2022/02/01 09:43:10;;;;;;;21.30;6.15;;;;;;;2.41;87.07;99565.09;5011554;28;20057;-59
2022/02/01 09:45:36;;;;;;;19.08;5.20;;;;;;;2.38;86.63;99551.22;5012091;28;20113;-59
2022/02/01 09:48:02;;;;;;;19.48;5.38;;;;;;;2.49;85.43;99539.34;5012921;28;20105;-59
2022/02/01 09:50:27;;;;;;;19.35;6.55;;;;;;;2.44;85.58;99551.50;5014508;28;20046;-59
2022/02/01 09:52:53;;;;;;;25.10;5.10;;;;;;;2.44;86.18;99546.19;5014875;28;20033;-59
2022/02/01 09:55:20;;;;;;;23.65;6.25;;;;;;;2.57;85.60;99544.56;5014294;28;20081;-59
2022/02/01 09:57:54;;;;;;;17.20;5.10;;;;;;;2.60;85.32;99530.16;5014858;28;20025;-59
2022/02/01 10:00:22;;;;;;;16.45;4.75;;;;;;;2.75;84.68;99533.59;5015527;28;20030;-59
2022/02/01 10:02:53;;;;;;;16.48;5.05;;;;;;;2.81;84.58;99516.97;5014009;28;20484;-59
2022/02/01 10:05:19;;;;;;;16.33;5.22;;;;;;;2.93;84.62;99516.50;5014203;28;20052;-59
2022/02/01 10:07:46;;;;;;;22.83;5.95;;;;;;;3.17;83.68;99516.19;5015384;28;20458;-59
2022/02/01 10:10:11;;;;;;;91.85;28.75;;;;;;;3.19;83.42;99511.50;5015404;28;20029;-59
2022/02/01 10:12:37;;;;;;;52.72;28.98;;;;;;;3.01;84.18;99514.56;5015234;28;20322;-59
2022/02/01 10:15:07;;;;;;;16.45;5.72;;;;;;;2.88;83.59;99505.66;5015272;28;20471;-59
2022/02/01 10:20:11;;;;;;;16.67;6.95;;;;;;;3.35;83.53;99476.00;5015210;28;19920;-59
2022/02/01 10:22:36;;;;;;;13.38;4.65;;;;;;;3.20;83.53;99478.72;5014857;28;20029;-59
2022/02/01 10:25:04;;;;;;;15.60;5.70;;;;;;;3.23;83.51;99473.03;5015701;28;20040;-59
2022/02/01 10:27:34;;;;;;;13.85;3.53;;;;;;;3.18;83.61;99462.19;5014731;28;20483;-59
2022/02/01 10:30:09;;;;;;;8.77;4.43;;;;;;;3.19;83.06;99455.88;5014701;28;20457;-59
2022/02/01 10:32:56;;;;;;;9.48;4.60;;;;;;;3.16;83.69;99466.84;5014786;28;20125;-59
2022/02/01 10:35:25;;;;;;;8.88;3.65;;;;;;;3.26;83.52;99449.81;5014630;28;20152;-59
2022/02/01 10:38:03;;;;;;;8.70;4.40;;;;;;;3.43;82.95;99428.19;5014866;28;20025;-59
2022/02/01 10:40:39;;;;;;;16.52;7.00;;;;;;;3.56;82.18;99435.41;5014584;28;20026;-59
2022/02/01 10:43:23;;;;;;;15.13;7.20;;;;;;;3.31;82.95;99420.94;5013832;28;20056;-59
2022/02/01 10:45:50;;;;;;;8.18;3.80;;;;;;;3.45;83.30;99412.91;5014737;28;20037;-59
2022/02/01 10:48:20;;;;;;;11.38;3.83;;;;;;;3.59;81.36;99405.06;5014693;28;20017;-59
2022/02/01 10:54:08;;;;;;;9.23;3.80;;;;;;;3.43;82.78;99388.44;5016280;28;20383;-59
2022/02/01 10:56:36;;;;;;;9.82;4.35;;;;;;;3.43;82.53;99377.03;5015029;28;20026;-59
2022/02/01 10:59:02;;;;;;;9.73;5.10;;;;;;;3.54;83.40;99373.00;5014877;28;20014;-59
2022/02/01 11:01:29;;;;;;;8.30;3.70;;;;;;;3.53;82.96;99366.91;5015815;28;20030;-59
2022/02/01 11:03:55;;;;;;;8.50;4.03;;;;;;;3.59;82.93;99371.41;5014644;28;20451;-59
2022/02/01 11:06:21;;;;;;;8.57;3.95;;;;;;;3.60;82.83;99357.16;4998386;28;20532;-59
2022/02/01 11:08:47;;;;;;;9.48;4.20;;;;;;;3.40;83.12;99356.22;5014517;28;20024;-59
2022/02/01 11:11:17;;;;;;;11.65;5.03;;;;;;;3.44;83.78;99370.69;5015714;28;20025;-59
2022/02/01 11:13:46;;;;;;;12.40;5.60;;;;;;;3.59;83.50;99355.50;5015755;28;20527;-59
2022/02/01 11:16:20;;;;;;;7.18;3.88;;;;;;;3.57;83.84;99352.25;5015874;28;20371;-59
2022/02/01 11:18:57;;;;;;;7.75;4.47;;;;;;;3.40;84.33;99327.06;5015518;28;20359;-59
2022/02/01 11:21:23;;;;;;;16.92;8.52;;;;;;;3.51;83.73;99331.81;5015463;28;20402;-59
2022/02/01 11:26:27;;;;;;;12.35;3.97;;;;;;;3.57;83.18;99301.91;5014478;28;20488;-59
2022/02/01 11:30:01;;;;;;;5.82;3.75;;;;;;;3.46;83.00;99295.28;5015331;28;20419;-59
2022/02/01 11:31:47;;;;;;;7.63;4.13;;;;;;;3.47;83.41;99304.09;5014694;28;20057;-59
2022/02/01 11:34:32;;;;;;;8.32;3.90;;;;;;;3.40;84.07;99287.31;5015350;28;20424;-59
2022/02/01 11:37:03;;;;;;;7.60;3.13;;;;;;;3.51;84.05;99281.47;5015664;28;20460;-59
2022/02/01 11:39:29;;;;;;;9.52;3.55;;;;;;;3.48;84.20;99284.50;5015237;28;20456;-59
2022/02/01 11:41:56;;;;;;;15.57;7.80;;;;;;;3.44;83.99;99280.59;5014734;28;20557;-59
2022/02/01 11:44:33;;;;;;;8.20;5.53;;;;;;;3.44;84.77;99288.56;5015008;28;20468;-59
2022/02/01 11:47:20;;;;;;;6.50;3.53;;;;;;;3.14;85.04;99288.75;5014175;28;20345;-59
2022/02/01 11:49:51;;;;;;;17.80;10.63;;;;;;;3.20;85.46;99280.06;5013991;28;20439;-59
2022/02/01 11:52:17;;;;;;;11.73;6.70;;;;;;;3.15;85.62;99284.31;5014974;28;20376;-59
2022/02/01 11:54:47;;;;;;;7.40;4.00;;;;;;;3.10;86.33;99266.34;5014913;28;20371;-59
2022/02/01 11:57:26;;;;;;;20.10;10.70;;;;;;;3.10;86.99;99266.34;5015214;28;20368;-59
2022/02/01 11:59:53;;;;;;;6.25;3.90;;;;;;;3.17;86.74;99263.72;5014847;28;20375;-59
2022/02/01 12:02:39;;;;;;;10.00;4.72;;;;;;;2.98;86.87;99267.88;5014760;28;20483;-59
2022/02/01 12:05:12;;;;;;;8.38;3.45;;;;;;;3.05;86.88;99242.25;5014749;28;20383;-59
2022/02/01 12:07:46;;;;;;;11.90;4.28;;;;;;;2.96;87.16;99244.22;5014798;28;20447;-60
2022/02/01 12:10:17;;;;;;;8.13;3.58;;;;;;;2.99;87.30;99238.53;5014424;28;20411;-61
2022/02/01 12:12:47;;;;;;;4.40;3.00;;;;;;;2.87;88.02;99226.03;5015636;28;20449;-60
2022/02/01 12:15:13;;;;;;;7.78;3.67;;;;;;;2.95;87.94;99236.50;5014976;28;20022;-60
2022/02/01 12:17:48;;;;;;;9.45;3.88;;;;;;;2.86;88.78;99225.22;5013621;28;20022;-59
2022/02/01 12:20:15;;;;;;;9.95;4.10;;;;;;;2.83;88.83;99228.25;5013289;28;20415;-59
2022/02/01 12:22:50;;;;;;;5.50;2.75;;;;;;;2.83;88.60;99217.66;5014476;28;20494;-60
2022/02/01 12:25:15;;;;;;;7.88;3.50;;;;;;;2.82;89.27;99205.41;5014685;28;20075;-59
2022/02/01 12:27:43;;;;;;;7.15;3.55;;;;;;;2.84;88.96;99206.06;5014610;28;20026;-59
2022/02/01 12:30:09;;;;;;;8.32;3.88;;;;;;;2.88;89.00;99209.16;5014486;28;20381;-60
2022/02/01 12:32:35;;;;;;;7.00;3.55;;;;;;;2.89;89.20;99189.59;5014217;28;20364;-59
2022/02/01 12:35:02;;;;;;;5.82;3.10;;;;;;;2.90;89.08;99189.41;5014241;28;20414;-60
2022/02/01 12:37:29;;;;;;;6.82;2.92;;;;;;;2.99;89.09;99195.34;5014217;28;20467;-60
2022/02/01 12:40:02;;;;;;;3.67;2.63;;;;;;;3.06;89.18;99184.81;5012937;28;20366;-59
2022/02/01 12:42:35;;;;;;;4.65;2.67;;;;;;;2.97;89.50;99186.78;5014157;28;20421;-60
2022/02/01 12:47:46;;;;;;;5.32;2.22;;;;;;;2.97;89.50;99192.09;5012970;28;20024;-60
2022/02/01 12:50:15;;;;;;;7.63;3.13;;;;;;;3.03;89.52;99170.13;5014089;28;20188;-59
2022/02/01 12:52:41;;;;;;;11.07;7.18;;;;;;;3.06;89.94;99171.56;5014146;28;20366;-60
2022/02/01 12:58:29;;;;;;;5.13;2.60;;;;;;;3.03;89.76;99170.13;5013916;28;20108;-60
2022/02/01 13:04:21;;;;;;;7.38;4.40;;;;;;;3.23;89.81;99165.75;5013790;28;20044;-60
2022/02/01 13:06:48;;;;;;;7.65;3.90;;;;;;;3.23;88.68;99164.94;5011610;28;20542;-60
2022/02/01 13:18:10;;;;;;;6.13;3.42;;;;;;;3.33;89.06;99141.56;5013365;28;20115;-60
2022/02/01 13:22:35;;;;;;;8.23;5.95;;;;;;;3.34;88.99;99139.72;5011931;28;20057;-60
2022/02/01 13:25:07;;;;;;;2.28;1.70;;;;;;;3.37;88.59;99134.03;5012014;28;20363;-60
2022/02/01 13:27:34;;;;;;;5.35;3.75;;;;;;;3.47;89.25;99129.19;5013351;28;20424;-60
2022/02/01 13:30:05;;;;;;;6.53;4.00;;;;;;;3.60;88.88;99126.56;5013288;28;20543;-60
2022/02/01 13:32:38;;;;;;;8.25;5.80;;;;;;;3.57;88.94;99116.38;5011579;28;20348;-60
2022/02/01 13:35:06;;;;;;;6.85;3.20;;;;;;;3.61;88.13;99111.47;5011643;28;20352;-60